sensor_id;sensor_type;location;lat;lon;timestamp;P1;durP1;ratioP1;P2;durP2;ratioP2
21624;SDS011;10974;51.034;3.744;2023-10-09T03:40:51;11.93;;;9.73;;
21624;SDS011;10974;51.034;3.744;2023-10-09T03:43:17;14.23;;;9.77;;
21624;SDS011;10974;51.034;3.744;2023-10-09T03:45:44;15.97;;;11.00;;
21624;SDS011;10974;51.034;3.744;2023-10-09T03:48:17;14.17;;;10.10;;
21624;SDS011;10974;51.034;3.744;2023-10-09T03:50:51;17.73;;;9.27;;
21624;SDS011;10974;51.034;3.744;2023-10-09T03:53:38;21.20;;;10.67;;
21624;SDS011;10974;51.034;3.744;2023-10-09T03:56:07;12.50;;;10.17;;
21624;SDS011;10974;51.034;3.744;2023-10-09T03:58:42;16.67;;;10.50;;
21624;SDS011;10974;51.034;3.744;2023-10-09T04:01:15;16.77;;;10.57;;
21624;SDS011;10974;51.034;3.744;2023-10-09T04:03:56;14.60;;;10.10;;
21624;SDS011;10974;51.034;3.744;2023-10-09T04:06:26;14.67;;;11.20;;
21624;SDS011;10974;51.034;3.744;2023-10-09T04:08:56;15.13;;;10.90;;
21624;SDS011;10974;51.034;3.744;2023-10-09T04:11:24;15.27;;;11.57;;
21624;SDS011;10974;51.034;3.744;2023-10-09T04:13:51;16.53;;;11.40;;
21624;SDS011;10974;51.034;3.744;2023-10-09T04:16:19;18.13;;;11.60;;
21624;SDS011;10974;51.034;3.744;2023-10-09T04:18:58;14.80;;;10.97;;
21624;SDS011;10974;51.034;3.744;2023-10-09T04:21:25;18.30;;;12.20;;
21624;SDS011;10974;51.034;3.744;2023-10-09T04:24:04;18.20;;;12.33;;
21624;SDS011;10974;51.034;3.744;2023-10-09T04:26:42;17.00;;;11.57;;
21624;SDS011;10974;51.034;3.744;2023-10-09T04:29:12;16.83;;;12.33;;
21624;SDS011;10974;51.034;3.744;2023-10-09T04:32:03;20.00;;;12.70;;
21624;SDS011;10974;51.034;3.744;2023-10-09T04:34:33;16.27;;;12.30;;
21624;SDS011;10974;51.034;3.744;2023-10-09T04:37:14;17.40;;;12.40;;
21624;SDS011;10974;51.034;3.744;2023-10-09T04:39:40;22.73;;;12.60;;
21624;SDS011;10974;51.034;3.744;2023-10-09T04:42:16;16.77;;;12.23;;
21624;SDS011;10974;51.034;3.744;2023-10-09T04:44:45;15.57;;;11.67;;
21624;SDS011;10974;51.034;3.744;2023-10-09T04:47:31;20.13;;;13.63;;
21624;SDS011;10974;51.034;3.744;2023-10-09T04:50:04;17.17;;;11.50;;
21624;SDS011;10974;51.034;3.744;2023-10-09T04:52:34;18.87;;;12.27;;
21624;SDS011;10974;51.034;3.744;2023-10-09T04:55:01;19.07;;;13.30;;
21624;SDS011;10974;51.034;3.744;2023-10-09T04:57:30;18.37;;;13.53;;
21624;SDS011;10974;51.034;3.744;2023-10-09T05:00:05;19.37;;;12.50;;
21624;SDS011;10974;51.034;3.744;2023-10-09T05:02:50;17.57;;;12.27;;
21624;SDS011;10974;51.034;3.744;2023-10-09T05:05:28;21.10;;;12.43;;
21624;SDS011;10974;51.034;3.744;2023-10-09T05:08:10;18.70;;;13.30;;
21624;SDS011;10974;51.034;3.744;2023-10-09T05:10:50;18.47;;;12.50;;
21624;SDS011;10974;51.034;3.744;2023-10-09T05:13:39;15.83;;;11.17;;
21624;SDS011;10974;51.034;3.744;2023-10-09T05:18:41;18.73;;;12.73;;
21624;SDS011;10974;51.034;3.744;2023-10-09T05:21:10;20.10;;;13.30;;
21624;SDS011;10974;51.034;3.744;2023-10-09T05:23:55;18.40;;;12.90;;
21624;SDS011;10974;51.034;3.744;2023-10-09T05:26:40;18.03;;;12.80;;
21624;SDS011;10974;51.034;3.744;2023-10-09T05:29:22;17.00;;;12.97;;
21624;SDS011;10974;51.034;3.744;2023-10-09T05:31:58;19.43;;;13.60;;
21624;SDS011;10974;51.034;3.744;2023-10-09T05:34:27;18.30;;;12.87;;
21624;SDS011;10974;51.034;3.744;2023-10-09T05:37:02;22.60;;;14.50;;
21624;SDS011;10974;51.034;3.744;2023-10-09T05:39:47;19.50;;;13.63;;
21624;SDS011;10974;51.034;3.744;2023-10-09T05:42:25;22.07;;;13.60;;
21624;SDS011;10974;51.034;3.744;2023-10-09T05:45:13;17.17;;;12.77;;
21624;SDS011;10974;51.034;3.744;2023-10-09T05:47:45;18.33;;;12.90;;
21624;SDS011;10974;51.034;3.744;2023-10-09T05:50:32;17.97;;;12.17;;
21624;SDS011;10974;51.034;3.744;2023-10-09T05:52:58;16.50;;;11.67;;
21624;SDS011;10974;51.034;3.744;2023-10-09T05:55:24;18.97;;;12.93;;
21624;SDS011;10974;51.034;3.744;2023-10-09T05:58:09;18.77;;;12.37;;
21624;SDS011;10974;51.034;3.744;2023-10-09T06:01:04;19.13;;;13.40;;
21624;SDS011;10974;51.034;3.744;2023-10-09T06:03:49;17.37;;;12.03;;
21624;SDS011;10974;51.034;3.744;2023-10-09T06:06:29;18.47;;;13.00;;
21624;SDS011;10974;51.034;3.744;2023-10-09T06:09:05;17.97;;;12.77;;
21624;SDS011;10974;51.034;3.744;2023-10-09T06:14:11;18.57;;;12.60;;
21624;SDS011;10974;51.034;3.744;2023-10-09T06:16:38;18.67;;;13.30;;
21624;SDS011;10974;51.034;3.744;2023-10-09T06:19:09;19.63;;;14.30;;
21624;SDS011;10974;51.034;3.744;2023-10-09T06:21:51;22.73;;;14.03;;
21624;SDS011;10974;51.034;3.744;2023-10-09T06:24:21;18.80;;;13.27;;
21624;SDS011;10974;51.034;3.744;2023-10-09T06:27:17;19.50;;;12.70;;
21624;SDS011;10974;51.034;3.744;2023-10-09T06:29:55;20.40;;;12.67;;
21624;SDS011;10974;51.034;3.744;2023-10-09T06:32:48;17.77;;;12.67;;
21624;SDS011;10974;51.034;3.744;2023-10-09T06:35:15;18.90;;;13.50;;
21624;SDS011;10974;51.034;3.744;2023-10-09T06:37:47;21.83;;;13.63;;
21624;SDS011;10974;51.034;3.744;2023-10-09T06:40:32;20.97;;;12.53;;
21624;SDS011;10974;51.034;3.744;2023-10-09T06:43:04;19.60;;;14.20;;
21624;SDS011;10974;51.034;3.744;2023-10-09T06:45:45;20.23;;;14.10;;
21624;SDS011;10974;51.034;3.744;2023-10-09T06:48:12;18.20;;;12.43;;
21624;SDS011;10974;51.034;3.744;2023-10-09T06:50:57;18.77;;;13.43;;
21624;SDS011;10974;51.034;3.744;2023-10-09T06:53:33;19.47;;;14.30;;
21624;SDS011;10974;51.034;3.744;2023-10-09T06:56:25;20.90;;;13.97;;
21624;SDS011;10974;51.034;3.744;2023-10-09T07:01:24;18.00;;;12.77;;
21624;SDS011;10974;51.034;3.744;2023-10-09T07:03:53;17.53;;;13.37;;
21624;SDS011;10974;51.034;3.744;2023-10-09T07:06:20;17.40;;;13.40;;
21624;SDS011;10974;51.034;3.744;2023-10-09T07:08:53;21.40;;;13.67;;
21624;SDS011;10974;51.034;3.744;2023-10-09T07:11:44;20.50;;;14.23;;
21624;SDS011;10974;51.034;3.744;2023-10-09T07:14:11;22.70;;;14.87;;
21624;SDS011;10974;51.034;3.744;2023-10-09T07:19:25;21.10;;;13.60;;
21624;SDS011;10974;51.034;3.744;2023-10-09T07:22:12;20.10;;;14.73;;
21624;SDS011;10974;51.034;3.744;2023-10-09T07:24:51;23.90;;;14.77;;
21624;SDS011;10974;51.034;3.744;2023-10-09T07:27:40;22.50;;;14.77;;
21624;SDS011;10974;51.034;3.744;2023-10-09T07:30:19;21.40;;;15.70;;
21624;SDS011;10974;51.034;3.744;2023-10-09T07:35:21;24.00;;;15.20;;
21624;SDS011;10974;51.034;3.744;2023-10-09T07:43:24;20.17;;;14.07;;
21624;SDS011;10974;51.034;3.744;2023-10-09T07:46:04;21.73;;;14.80;;
21624;SDS011;10974;51.034;3.744;2023-10-09T07:48:30;25.70;;;14.67;;
21624;SDS011;10974;51.034;3.744;2023-10-09T07:51:15;23.30;;;14.47;;
21624;SDS011;10974;51.034;3.744;2023-10-09T07:53:42;24.07;;;15.70;;
21624;SDS011;10974;51.034;3.744;2023-10-09T07:56:11;18.60;;;14.00;;
21624;SDS011;10974;51.034;3.744;2023-10-09T07:58:46;20.13;;;13.80;;
21624;SDS011;10974;51.034;3.744;2023-10-09T08:01:15;21.40;;;14.37;;
21624;SDS011;10974;51.034;3.744;2023-10-09T08:03:47;24.13;;;14.20;;
21624;SDS011;10974;51.034;3.744;2023-10-09T08:06:22;26.10;;;15.33;;
21624;SDS011;10974;51.034;3.744;2023-10-09T08:09:03;25.40;;;14.27;;
21624;SDS011;10974;51.034;3.744;2023-10-09T08:11:45;21.17;;;14.23;;
21624;SDS011;10974;51.034;3.744;2023-10-09T08:14:11;21.20;;;14.97;;
21624;SDS011;10974;51.034;3.744;2023-10-09T08:16:47;25.90;;;16.47;;
21624;SDS011;10974;51.034;3.744;2023-10-09T08:19:13;21.97;;;14.80;;
21624;SDS011;10974;51.034;3.744;2023-10-09T08:22:00;25.57;;;16.73;;
21624;SDS011;10974;51.034;3.744;2023-10-09T08:24:42;23.47;;;15.10;;
21624;SDS011;10974;51.034;3.744;2023-10-09T08:27:21;21.57;;;13.93;;
21624;SDS011;10974;51.034;3.744;2023-10-09T08:29:59;22.50;;;15.50;;
21624;SDS011;10974;51.034;3.744;2023-10-09T08:32:53;23.10;;;15.40;;
21624;SDS011;10974;51.034;3.744;2023-10-09T08:35:48;22.13;;;15.50;;
21624;SDS011;10974;51.034;3.744;2023-10-09T08:38:16;25.03;;;16.20;;
21624;SDS011;10974;51.034;3.744;2023-10-09T08:40:48;24.70;;;15.60;;
21624;SDS011;10974;51.034;3.744;2023-10-09T08:43:18;26.87;;;16.43;;
21624;SDS011;10974;51.034;3.744;2023-10-09T08:45:49;20.80;;;14.33;;
21624;SDS011;10974;51.034;3.744;2023-10-09T08:48:18;20.80;;;15.00;;
21624;SDS011;10974;51.034;3.744;2023-10-09T08:50:47;23.50;;;15.20;;
21624;SDS011;10974;51.034;3.744;2023-10-09T08:53:15;23.73;;;15.70;;
21624;SDS011;10974;51.034;3.744;2023-10-09T08:55:42;23.87;;;15.07;;
21624;SDS011;10974;51.034;3.744;2023-10-09T08:58:09;27.87;;;15.30;;
21624;SDS011;10974;51.034;3.744;2023-10-09T09:00:44;21.60;;;15.20;;
21624;SDS011;10974;51.034;3.744;2023-10-09T09:03:19;23.10;;;15.67;;
21624;SDS011;10974;51.034;3.744;2023-10-09T09:05:57;30.20;;;17.03;;
21624;SDS011;10974;51.034;3.744;2023-10-09T09:08:26;22.87;;;16.23;;
21624;SDS011;10974;51.034;3.744;2023-10-09T09:10:59;22.70;;;16.37;;
21624;SDS011;10974;51.034;3.744;2023-10-09T09:13:35;24.23;;;16.37;;
21624;SDS011;10974;51.034;3.744;2023-10-09T09:16:01;26.23;;;15.57;;
21624;SDS011;10974;51.034;3.744;2023-10-09T09:18:28;22.53;;;15.00;;
21624;SDS011;10974;51.034;3.744;2023-10-09T09:21:03;25.20;;;15.30;;
21624;SDS011;10974;51.034;3.744;2023-10-09T09:23:56;23.17;;;16.03;;
21624;SDS011;10974;51.034;3.744;2023-10-09T09:26:42;25.80;;;13.53;;
21624;SDS011;10974;51.034;3.744;2023-10-09T09:29:12;24.20;;;15.30;;
21624;SDS011;10974;51.034;3.744;2023-10-09T09:31:39;21.73;;;16.27;;
21624;SDS011;10974;51.034;3.744;2023-10-09T09:34:17;20.77;;;15.30;;
21624;SDS011;10974;51.034;3.744;2023-10-09T09:36:49;25.07;;;15.10;;
21624;SDS011;10974;51.034;3.744;2023-10-09T09:39:27;21.50;;;15.60;;
21624;SDS011;10974;51.034;3.744;2023-10-09T09:42:00;24.40;;;15.30;;
21624;SDS011;10974;51.034;3.744;2023-10-09T09:44:32;25.13;;;15.67;;
21624;SDS011;10974;51.034;3.744;2023-10-09T09:47:08;23.90;;;15.83;;
21624;SDS011;10974;51.034;3.744;2023-10-09T09:49:37;24.53;;;14.73;;
21624;SDS011;10974;51.034;3.744;2023-10-09T09:52:04;22.73;;;15.53;;
21624;SDS011;10974;51.034;3.744;2023-10-09T09:54:35;22.43;;;15.60;;
21624;SDS011;10974;51.034;3.744;2023-10-09T09:57:02;24.40;;;15.80;;
21624;SDS011;10974;51.034;3.744;2023-10-09T09:59:37;29.07;;;15.70;;
21624;SDS011;10974;51.034;3.744;2023-10-09T10:02:05;24.83;;;16.47;;
21624;SDS011;10974;51.034;3.744;2023-10-09T10:04:31;24.40;;;15.07;;
21624;SDS011;10974;51.034;3.744;2023-10-09T10:07:00;22.53;;;16.23;;
21624;SDS011;10974;51.034;3.744;2023-10-09T10:09:37;25.67;;;16.00;;
21624;SDS011;10974;51.034;3.744;2023-10-09T10:12:09;23.23;;;15.23;;
21624;SDS011;10974;51.034;3.744;2023-10-09T10:17:17;23.93;;;16.13;;
21624;SDS011;10974;51.034;3.744;2023-10-09T10:20:02;24.03;;;16.03;;
21624;SDS011;10974;51.034;3.744;2023-10-09T10:22:44;21.83;;;16.20;;
21624;SDS011;10974;51.034;3.744;2023-10-09T10:25:31;22.57;;;15.63;;
21624;SDS011;10974;51.034;3.744;2023-10-09T10:30:45;27.33;;;14.63;;
21624;SDS011;10974;51.034;3.744;2023-10-09T10:33:12;20.77;;;15.67;;
21624;SDS011;10974;51.034;3.744;2023-10-09T10:35:41;22.17;;;15.37;;
21624;SDS011;10974;51.034;3.744;2023-10-09T10:40:49;25.83;;;14.37;;
21624;SDS011;10974;51.034;3.744;2023-10-09T10:43:26;22.23;;;14.53;;
21624;SDS011;10974;51.034;3.744;2023-10-09T10:46:01;23.50;;;14.67;;
21624;SDS011;10974;51.034;3.744;2023-10-09T10:48:33;24.63;;;15.00;;
21624;SDS011;10974;51.034;3.744;2023-10-09T10:51:03;21.87;;;14.60;;
21624;SDS011;10974;51.034;3.744;2023-10-09T10:53:29;22.20;;;13.53;;
21624;SDS011;10974;51.034;3.744;2023-10-09T10:56:12;22.00;;;13.97;;
21624;SDS011;10974;51.034;3.744;2023-10-09T10:58:40;24.73;;;15.10;;
21624;SDS011;10974;51.034;3.744;2023-10-09T11:01:18;19.50;;;13.90;;
21624;SDS011;10974;51.034;3.744;2023-10-09T11:03:48;20.57;;;14.23;;
21624;SDS011;10974;51.034;3.744;2023-10-09T11:06:27;22.10;;;14.60;;
21624;SDS011;10974;51.034;3.744;2023-10-09T11:09:03;30.20;;;16.13;;
21624;SDS011;10974;51.034;3.744;2023-10-09T11:11:46;29.87;;;14.17;;
21624;SDS011;10974;51.034;3.744;2023-10-09T11:14:12;24.97;;;15.17;;
21624;SDS011;10974;51.034;3.744;2023-10-09T11:17:02;27.30;;;14.90;;
21624;SDS011;10974;51.034;3.744;2023-10-09T11:19:48;28.50;;;14.33;;
21624;SDS011;10974;51.034;3.744;2023-10-09T11:22:17;22.53;;;14.77;;
21624;SDS011;10974;51.034;3.744;2023-10-09T11:25:01;18.60;;;12.80;;
21624;SDS011;10974;51.034;3.744;2023-10-09T11:27:37;22.73;;;13.97;;
21624;SDS011;10974;51.034;3.744;2023-10-09T11:30:05;22.47;;;13.67;;
21624;SDS011;10974;51.034;3.744;2023-10-09T11:32:36;20.70;;;13.53;;
21624;SDS011;10974;51.034;3.744;2023-10-09T11:35:13;19.37;;;14.30;;
21624;SDS011;10974;51.034;3.744;2023-10-09T11:37:56;20.57;;;13.97;;
21624;SDS011;10974;51.034;3.744;2023-10-09T11:40:29;21.03;;;14.47;;
21624;SDS011;10974;51.034;3.744;2023-10-09T11:43:15;18.10;;;12.73;;
21624;SDS011;10974;51.034;3.744;2023-10-09T11:45:41;22.13;;;14.03;;
21624;SDS011;10974;51.034;3.744;2023-10-09T11:48:19;20.27;;;13.33;;
21624;SDS011;10974;51.034;3.744;2023-10-09T11:51:15;21.57;;;13.67;;
21624;SDS011;10974;51.034;3.744;2023-10-09T11:53:44;18.43;;;13.40;;
21624;SDS011;10974;51.034;3.744;2023-10-09T11:56:14;19.60;;;12.73;;
21624;SDS011;10974;51.034;3.744;2023-10-09T11:58:48;20.70;;;14.70;;
21624;SDS011;10974;51.034;3.744;2023-10-09T12:01:17;25.43;;;13.10;;
21624;SDS011;10974;51.034;3.744;2023-10-09T12:03:45;18.90;;;13.00;;
21624;SDS011;10974;51.034;3.744;2023-10-09T12:06:15;21.00;;;14.00;;
21624;SDS011;10974;51.034;3.744;2023-10-09T12:08:44;20.23;;;13.80;;
21624;SDS011;10974;51.034;3.744;2023-10-09T12:11:13;18.50;;;13.40;;
21624;SDS011;10974;51.034;3.744;2023-10-09T12:13:41;19.23;;;13.40;;
21624;SDS011;10974;51.034;3.744;2023-10-09T12:16:11;26.10;;;13.70;;
21624;SDS011;10974;51.034;3.744;2023-10-09T12:18:40;19.53;;;13.13;;
21624;SDS011;10974;51.034;3.744;2023-10-09T12:21:08;19.17;;;13.37;;
21624;SDS011;10974;51.034;3.744;2023-10-09T12:23:41;18.87;;;13.13;;
21624;SDS011;10974;51.034;3.744;2023-10-09T12:26:09;21.10;;;13.73;;
21624;SDS011;10974;51.034;3.744;2023-10-09T12:28:45;17.80;;;12.80;;
21624;SDS011;10974;51.034;3.744;2023-10-09T12:31:11;20.27;;;12.87;;
21624;SDS011;10974;51.034;3.744;2023-10-09T12:33:40;19.80;;;14.10;;
21624;SDS011;10974;51.034;3.744;2023-10-09T12:36:06;20.87;;;12.70;;
21624;SDS011;10974;51.034;3.744;2023-10-09T12:38:32;21.97;;;13.43;;
21624;SDS011;10974;51.034;3.744;2023-10-09T12:41:02;21.60;;;13.90;;
21624;SDS011;10974;51.034;3.744;2023-10-09T12:43:33;23.07;;;13.80;;
21624;SDS011;10974;51.034;3.744;2023-10-09T12:46:06;22.30;;;13.87;;
21624;SDS011;10974;51.034;3.744;2023-10-09T12:48:32;19.07;;;12.53;;
21624;SDS011;10974;51.034;3.744;2023-10-09T12:50:58;20.20;;;13.20;;
21624;SDS011;10974;51.034;3.744;2023-10-09T12:53:31;20.17;;;13.93;;
21624;SDS011;10974;51.034;3.744;2023-10-09T12:55:57;26.93;;;14.30;;
21624;SDS011;10974;51.034;3.744;2023-10-09T12:58:23;25.40;;;13.50;;
21624;SDS011;10974;51.034;3.744;2023-10-09T13:00:52;21.70;;;13.77;;
21624;SDS011;10974;51.034;3.744;2023-10-09T13:03:18;21.83;;;13.93;;
21624;SDS011;10974;51.034;3.744;2023-10-09T13:05:51;20.13;;;13.30;;
21624;SDS011;10974;51.034;3.744;2023-10-09T13:08:20;17.73;;;12.47;;
21624;SDS011;10974;51.034;3.744;2023-10-09T13:10:47;22.50;;;13.73;;
21624;SDS011;10974;51.034;3.744;2023-10-09T13:13:20;20.57;;;13.80;;
21624;SDS011;10974;51.034;3.744;2023-10-09T13:15:46;17.07;;;11.70;;
21624;SDS011;10974;51.034;3.744;2023-10-09T13:18:12;16.70;;;12.30;;
21624;SDS011;10974;51.034;3.744;2023-10-09T13:20:40;19.03;;;12.60;;
21624;SDS011;10974;51.034;3.744;2023-10-09T13:23:06;21.47;;;13.37;;
21624;SDS011;10974;51.034;3.744;2023-10-09T13:25:32;21.43;;;13.33;;
21624;SDS011;10974;51.034;3.744;2023-10-09T13:28:05;17.67;;;10.53;;
21624;SDS011;10974;51.034;3.744;2023-10-09T13:30:31;18.10;;;10.63;;
21624;SDS011;10974;51.034;3.744;2023-10-09T13:33:04;15.17;;;10.77;;
21624;SDS011;10974;51.034;3.744;2023-10-09T13:35:30;14.43;;;10.10;;
21624;SDS011;10974;51.034;3.744;2023-10-09T13:38:03;15.70;;;9.33;;
21624;SDS011;10974;51.034;3.744;2023-10-09T13:40:34;15.77;;;9.30;;
21624;SDS011;10974;51.034;3.744;2023-10-09T13:43:02;21.00;;;10.10;;
21624;SDS011;10974;51.034;3.744;2023-10-09T13:45:30;17.87;;;10.37;;
21624;SDS011;10974;51.034;3.744;2023-10-09T13:47:58;15.20;;;10.23;;
21624;SDS011;10974;51.034;3.744;2023-10-09T13:50:24;16.03;;;10.07;;
21624;SDS011;10974;51.034;3.744;2023-10-09T13:52:57;15.70;;;10.73;;
21624;SDS011;10974;51.034;3.744;2023-10-09T13:55:23;14.97;;;9.83;;
21624;SDS011;10974;51.034;3.744;2023-10-09T13:57:56;19.43;;;10.10;;
21624;SDS011;10974;51.034;3.744;2023-10-09T14:00:22;15.10;;;9.23;;
21624;SDS011;10974;51.034;3.744;2023-10-09T14:02:58;16.37;;;8.80;;
21624;SDS011;10974;51.034;3.744;2023-10-09T14:05:29;15.73;;;9.73;;
21624;SDS011;10974;51.034;3.744;2023-10-09T14:07:55;15.33;;;8.67;;
21624;SDS011;10974;51.034;3.744;2023-10-09T14:10:25;16.50;;;10.37;;
21624;SDS011;10974;51.034;3.744;2023-10-09T14:12:55;18.03;;;10.97;;
21624;SDS011;10974;51.034;3.744;2023-10-09T14:15:22;20.80;;;11.03;;
21624;SDS011;10974;51.034;3.744;2023-10-09T14:17:48;19.93;;;11.00;;
21624;SDS011;10974;51.034;3.744;2023-10-09T14:20:21;16.90;;;10.30;;
21624;SDS011;10974;51.034;3.744;2023-10-09T14:22:57;15.33;;;10.87;;
21624;SDS011;10974;51.034;3.744;2023-10-09T14:25:31;16.60;;;10.80;;
21624;SDS011;10974;51.034;3.744;2023-10-09T14:27:57;17.40;;;10.90;;
21624;SDS011;10974;51.034;3.744;2023-10-09T14:30:23;19.23;;;11.43;;
21624;SDS011;10974;51.034;3.744;2023-10-09T14:32:56;21.00;;;11.20;;
21624;SDS011;10974;51.034;3.744;2023-10-09T14:35:22;16.43;;;10.70;;
21624;SDS011;10974;51.034;3.744;2023-10-09T14:37:55;16.20;;;11.60;;
21624;SDS011;10974;51.034;3.744;2023-10-09T14:40:22;17.90;;;11.77;;
21624;SDS011;10974;51.034;3.744;2023-10-09T14:42:57;18.10;;;12.10;;
21624;SDS011;10974;51.034;3.744;2023-10-09T14:45:26;16.77;;;10.83;;
21624;SDS011;10974;51.034;3.744;2023-10-09T14:47:53;17.63;;;12.40;;
21624;SDS011;10974;51.034;3.744;2023-10-09T14:50:22;22.37;;;13.00;;
21624;SDS011;10974;51.034;3.744;2023-10-09T14:52:49;20.60;;;12.20;;
21624;SDS011;10974;51.034;3.744;2023-10-09T14:55:16;19.30;;;13.77;;
21624;SDS011;10974;51.034;3.744;2023-10-09T14:57:51;18.70;;;12.80;;
21624;SDS011;10974;51.034;3.744;2023-10-09T15:00:18;22.27;;;13.27;;
21624;SDS011;10974;51.034;3.744;2023-10-09T15:02:49;18.30;;;13.50;;
21624;SDS011;10974;51.034;3.744;2023-10-09T15:05:16;19.93;;;12.80;;
21624;SDS011;10974;51.034;3.744;2023-10-09T15:07:42;17.90;;;12.30;;
21624;SDS011;10974;51.034;3.744;2023-10-09T15:10:08;18.50;;;11.60;;
21624;SDS011;10974;51.034;3.744;2023-10-09T15:12:35;21.90;;;12.60;;
21624;SDS011;10974;51.034;3.744;2023-10-09T15:15:05;22.53;;;12.33;;
21624;SDS011;10974;51.034;3.744;2023-10-09T15:17:41;18.97;;;12.27;;
21624;SDS011;10974;51.034;3.744;2023-10-09T15:20:11;21.80;;;11.70;;
21624;SDS011;10974;51.034;3.744;2023-10-09T15:22:41;17.93;;;11.90;;
21624;SDS011;10974;51.034;3.744;2023-10-09T15:25:07;17.37;;;11.30;;
21624;SDS011;10974;51.034;3.744;2023-10-09T15:27:33;21.20;;;12.27;;
21624;SDS011;10974;51.034;3.744;2023-10-09T15:29:59;19.13;;;13.27;;
21624;SDS011;10974;51.034;3.744;2023-10-09T15:32:25;21.37;;;12.00;;
21624;SDS011;10974;51.034;3.744;2023-10-09T15:34:56;17.50;;;11.40;;
21624;SDS011;10974;51.034;3.744;2023-10-09T15:37:22;16.17;;;10.20;;
21624;SDS011;10974;51.034;3.744;2023-10-09T15:39:48;17.10;;;11.43;;
21624;SDS011;10974;51.034;3.744;2023-10-09T15:42:15;19.37;;;12.00;;
21624;SDS011;10974;51.034;3.744;2023-10-09T15:44:41;20.73;;;12.10;;
21624;SDS011;10974;51.034;3.744;2023-10-09T15:47:13;18.70;;;11.53;;
21624;SDS011;10974;51.034;3.744;2023-10-09T15:49:40;17.93;;;11.40;;
21624;SDS011;10974;51.034;3.744;2023-10-09T15:52:09;19.70;;;11.13;;
21624;SDS011;10974;51.034;3.744;2023-10-09T15:54:39;17.40;;;10.23;;
21624;SDS011;10974;51.034;3.744;2023-10-09T15:57:08;17.73;;;11.10;;
21624;SDS011;10974;51.034;3.744;2023-10-09T15:59:38;19.20;;;11.07;;
21624;SDS011;10974;51.034;3.744;2023-10-09T16:02:04;19.23;;;12.17;;
21624;SDS011;10974;51.034;3.744;2023-10-09T16:04:30;19.13;;;11.87;;
21624;SDS011;10974;51.034;3.744;2023-10-09T16:06:59;16.60;;;11.37;;
21624;SDS011;10974;51.034;3.744;2023-10-09T16:09:25;19.33;;;10.40;;
21624;SDS011;10974;51.034;3.744;2023-10-09T16:11:51;30.83;;;15.87;;
21624;SDS011;10974;51.034;3.744;2023-10-09T16:14:19;17.10;;;11.37;;
21624;SDS011;10974;51.034;3.744;2023-10-09T16:16:45;20.57;;;11.50;;
21624;SDS011;10974;51.034;3.744;2023-10-09T16:19:11;16.97;;;10.97;;
21624;SDS011;10974;51.034;3.744;2023-10-09T16:21:38;15.00;;;10.00;;
21624;SDS011;10974;51.034;3.744;2023-10-09T16:24:04;16.97;;;10.73;;
21624;SDS011;10974;51.034;3.744;2023-10-09T16:26:33;16.97;;;10.60;;
21624;SDS011;10974;51.034;3.744;2023-10-09T16:29:07;17.70;;;9.50;;
21624;SDS011;10974;51.034;3.744;2023-10-09T16:31:34;20.30;;;10.43;;
21624;SDS011;10974;51.034;3.744;2023-10-09T16:34:02;15.93;;;10.13;;
21624;SDS011;10974;51.034;3.744;2023-10-09T16:36:29;19.83;;;10.23;;
21624;SDS011;10974;51.034;3.744;2023-10-09T16:38:55;15.47;;;10.50;;
21624;SDS011;10974;51.034;3.744;2023-10-09T16:41:24;14.27;;;9.10;;
21624;SDS011;10974;51.034;3.744;2023-10-09T16:43:51;18.63;;;9.87;;
21624;SDS011;10974;51.034;3.744;2023-10-09T16:46:20;18.73;;;9.97;;
21624;SDS011;10974;51.034;3.744;2023-10-09T16:48:49;17.63;;;10.63;;
21624;SDS011;10974;51.034;3.744;2023-10-09T16:51:22;17.63;;;10.40;;
21624;SDS011;10974;51.034;3.744;2023-10-09T16:53:50;21.50;;;13.30;;
21624;SDS011;10974;51.034;3.744;2023-10-09T16:56:20;15.73;;;10.43;;
21624;SDS011;10974;51.034;3.744;2023-10-09T16:58:46;20.83;;;10.87;;
21624;SDS011;10974;51.034;3.744;2023-10-09T17:01:21;19.87;;;10.50;;
21624;SDS011;10974;51.034;3.744;2023-10-09T17:03:49;16.13;;;10.60;;
21624;SDS011;10974;51.034;3.744;2023-10-09T17:06:20;17.57;;;9.93;;
21624;SDS011;10974;51.034;3.744;2023-10-09T17:08:46;15.80;;;9.17;;
21624;SDS011;10974;51.034;3.744;2023-10-09T17:11:13;19.23;;;11.43;;
21624;SDS011;10974;51.034;3.744;2023-10-09T17:13:40;21.83;;;11.17;;
21624;SDS011;10974;51.034;3.744;2023-10-09T17:16:13;17.03;;;10.70;;
21624;SDS011;10974;51.034;3.744;2023-10-09T17:18:43;24.53;;;10.37;;
21624;SDS011;10974;51.034;3.744;2023-10-09T17:21:10;18.00;;;10.23;;
21624;SDS011;10974;51.034;3.744;2023-10-09T17:23:42;16.67;;;10.03;;
21624;SDS011;10974;51.034;3.744;2023-10-09T17:26:10;13.93;;;9.10;;
21624;SDS011;10974;51.034;3.744;2023-10-09T17:28:37;14.80;;;9.03;;
21624;SDS011;10974;51.034;3.744;2023-10-09T17:31:03;18.90;;;10.40;;
21624;SDS011;10974;51.034;3.744;2023-10-09T17:33:30;15.33;;;9.97;;
21624;SDS011;10974;51.034;3.744;2023-10-09T17:36:00;17.10;;;9.53;;
21624;SDS011;10974;51.034;3.744;2023-10-09T17:38:26;17.23;;;9.90;;
21624;SDS011;10974;51.034;3.744;2023-10-09T17:40:55;17.20;;;8.80;;
21624;SDS011;10974;51.034;3.744;2023-10-09T17:43:22;16.70;;;8.73;;
21624;SDS011;10974;51.034;3.744;2023-10-09T17:45:52;15.50;;;9.40;;
21624;SDS011;10974;51.034;3.744;2023-10-09T17:48:21;18.50;;;8.80;;
21624;SDS011;10974;51.034;3.744;2023-10-09T17:50:47;16.90;;;9.60;;
21624;SDS011;10974;51.034;3.744;2023-10-09T17:53:14;14.80;;;8.80;;
21624;SDS011;10974;51.034;3.744;2023-10-09T17:55:41;19.60;;;10.20;;
21624;SDS011;10974;51.034;3.744;2023-10-09T17:58:09;19.60;;;9.13;;
21624;SDS011;10974;51.034;3.744;2023-10-09T18:00:40;14.73;;;8.63;;
21624;SDS011;10974;51.034;3.744;2023-10-09T18:03:06;16.23;;;9.03;;
21624;SDS011;10974;51.034;3.744;2023-10-09T18:05:33;13.60;;;9.73;;
21624;SDS011;10974;51.034;3.744;2023-10-09T18:07:59;17.07;;;8.97;;
21624;SDS011;10974;51.034;3.744;2023-10-09T18:10:32;14.83;;;9.20;;
21624;SDS011;10974;51.034;3.744;2023-10-09T18:12:58;17.73;;;9.30;;
21624;SDS011;10974;51.034;3.744;2023-10-09T18:15:24;15.47;;;9.80;;
21624;SDS011;10974;51.034;3.744;2023-10-09T18:17:52;21.97;;;9.97;;
21624;SDS011;10974;51.034;3.744;2023-10-09T18:20:19;15.97;;;9.37;;
21624;SDS011;10974;51.034;3.744;2023-10-09T18:22:47;14.67;;;9.40;;
21624;SDS011;10974;51.034;3.744;2023-10-09T18:25:13;17.70;;;9.60;;
21624;SDS011;10974;51.034;3.744;2023-10-09T18:27:40;20.13;;;9.87;;
21624;SDS011;10974;51.034;3.744;2023-10-09T18:30:06;14.90;;;9.57;;
21624;SDS011;10974;51.034;3.744;2023-10-09T18:32:33;15.20;;;9.90;;
21624;SDS011;10974;51.034;3.744;2023-10-09T18:35:01;15.90;;;8.30;;
21624;SDS011;10974;51.034;3.744;2023-10-09T18:37:27;14.77;;;8.30;;
21624;SDS011;10974;51.034;3.744;2023-10-09T18:39:53;13.87;;;8.33;;
21624;SDS011;10974;51.034;3.744;2023-10-09T18:42:19;10.97;;;8.07;;
21624;SDS011;10974;51.034;3.744;2023-10-09T18:44:45;12.97;;;7.80;;
21624;SDS011;10974;51.034;3.744;2023-10-09T18:47:11;12.07;;;7.50;;
21624;SDS011;10974;51.034;3.744;2023-10-09T18:49:41;15.93;;;8.37;;
21624;SDS011;10974;51.034;3.744;2023-10-09T18:52:07;14.97;;;8.13;;
21624;SDS011;10974;51.034;3.744;2023-10-09T18:54:35;14.57;;;8.07;;
21624;SDS011;10974;51.034;3.744;2023-10-09T18:57:02;10.53;;;7.40;;